createdAt,value
2018-07-03T00:01:59.841Z,92.10
2018-07-03T00:04:28.841Z,92.00
2018-07-03T00:06:57.913Z,91.90
2018-07-03T00:09:26.908Z,91.80
2018-07-03T00:11:55.953Z,91.90
2018-07-03T00:14:24.945Z,91.90
2018-07-03T00:16:59.188Z,92.00
2018-07-03T00:19:28.176Z,92.00
2018-07-03T00:21:57.300Z,91.90
2018-07-03T00:24:26.352Z,91.70
2018-07-03T00:26:55.348Z,91.70
2018-07-03T00:29:24.836Z,91.80
2018-07-03T00:31:53.880Z,92.10
2018-07-03T00:34:23.093Z,91.90
2018-07-03T00:36:52.372Z,92.50
2018-07-03T00:39:21.363Z,92.40
2018-07-03T00:41:50.360Z,92.80
2018-07-03T00:44:19.385Z,92.70
2018-07-03T00:46:48.422Z,92.30
2018-07-03T00:49:17.409Z,92.10
2018-07-03T00:51:46.451Z,92.00
2018-07-03T00:54:15.537Z,92.00
2018-07-03T00:56:44.593Z,92.00
2018-07-03T00:59:13.615Z,92.00
2018-07-03T01:01:42.608Z,91.90
2018-07-03T01:04:11.625Z,92.40
2018-07-03T01:06:40.621Z,92.50
2018-07-03T01:09:10.093Z,92.60
2018-07-03T01:11:39.853Z,92.70
2018-07-03T01:14:08.893Z,92.80
2018-07-03T01:16:37.880Z,92.80
2018-07-03T01:19:06.868Z,92.70
2018-07-03T01:21:35.980Z,92.70
2018-07-03T01:24:04.977Z,93.00
2018-07-03T01:26:34.017Z,92.90
2018-07-03T01:29:03.014Z,93.00
2018-07-03T01:31:32.009Z,93.00
2018-07-03T01:34:01.033Z,93.00
2018-07-03T01:36:30.083Z,93.10
2018-07-03T01:38:59.073Z,93.20
2018-07-03T01:41:28.101Z,93.20
2018-07-03T01:43:57.088Z,93.40
2018-07-03T01:46:26.119Z,93.30
2018-07-03T01:48:55.121Z,93.30
2018-07-03T01:51:24.180Z,93.70
2018-07-03T01:53:53.222Z,93.80
2018-07-03T01:56:22.200Z,93.90
2018-07-03T01:58:51.369Z,94.00
2018-07-03T02:01:20.396Z,94.00
2018-07-03T02:03:49.433Z,94.10
2018-07-03T02:06:18.429Z,94.10
2018-07-03T02:08:47.412Z,94.10
2018-07-03T02:11:16.497Z,94.20
2018-07-03T02:13:45.528Z,94.40
2018-07-03T02:16:14.516Z,94.50
2018-07-03T02:18:43.515Z,94.30
2018-07-03T02:21:12.874Z,94.50
2018-07-03T02:23:42.282Z,94.60
2018-07-03T02:26:11.285Z,94.70
2018-07-03T02:28:40.309Z,94.70
2018-07-03T02:31:09.328Z,94.70
2018-07-03T02:33:38.361Z,94.70
2018-07-03T02:36:07.409Z,94.70
2018-07-03T02:38:36.404Z,94.70
2018-07-03T02:41:05.742Z,94.40
2018-07-03T02:43:34.733Z,94.60
2018-07-03T02:46:03.729Z,94.70
2018-07-03T02:48:32.747Z,94.70
2018-07-03T02:51:01.732Z,94.70
2018-07-03T02:53:30.861Z,94.60
2018-07-03T02:56:06.593Z,94.70
2018-07-03T02:58:35.621Z,94.80
2018-07-03T03:01:04.985Z,94.60
2018-07-03T03:03:34.112Z,95.00
2018-07-03T03:06:03.136Z,95.00
2018-07-03T03:08:32.130Z,94.90
2018-07-03T03:11:01.129Z,95.10
2018-07-03T03:13:30.409Z,95.00
2018-07-03T03:15:59.397Z,95.20
2018-07-03T03:18:28.395Z,95.30
2018-07-03T03:20:57.426Z,95.10
2018-07-03T03:23:26.597Z,94.90
2018-07-03T03:25:55.773Z,94.90
2018-07-03T03:28:24.790Z,94.90
2018-07-03T03:30:53.785Z,94.90
2018-07-03T03:33:23.103Z,94.60
2018-07-03T03:35:52.108Z,94.70
2018-07-03T03:38:21.113Z,94.70
2018-07-03T03:40:50.246Z,94.70
2018-07-03T03:43:19.277Z,94.50
2018-07-03T03:45:48.277Z,94.30
2018-07-03T03:48:17.404Z,94.10
2018-07-03T03:50:46.421Z,93.60
2018-07-03T03:53:15.462Z,92.30
2018-07-03T03:55:44.461Z,91.60
2018-07-03T03:58:13.493Z,91.20
2018-07-03T04:00:42.476Z,89.90
2018-07-03T04:03:11.526Z,87.00
2018-07-03T04:05:40.544Z,83.50
2018-07-03T04:08:09.536Z,80.40
2018-07-03T04:10:38.569Z,77.50
2018-07-03T04:13:07.592Z,78.10
2018-07-03T04:15:36.582Z,81.10
2018-07-03T04:18:05.817Z,82.20
2018-07-03T04:20:35.021Z,84.00
2018-07-03T04:23:04.321Z,86.40
2018-07-03T04:25:33.353Z,87.20
2018-07-03T04:28:02.343Z,87.50
2018-07-03T04:30:31.364Z,87.70
2018-07-03T04:33:00.343Z,86.00
2018-07-03T04:35:29.418Z,84.50
2018-07-03T04:37:58.436Z,85.20
2018-07-03T04:40:27.461Z,82.20
2018-07-03T04:42:56.445Z,81.70
2018-07-03T04:45:25.647Z,81.80
2018-07-03T04:47:54.689Z,81.20
2018-07-03T04:50:23.762Z,80.40
2018-07-03T04:52:52.775Z,78.90
2018-07-03T04:55:21.797Z,79.20
2018-07-03T04:57:50.997Z,79.50
2018-07-03T05:00:19.990Z,78.80
2018-07-03T05:02:48.984Z,79.50
2018-07-03T05:05:18.035Z,80.10
2018-07-03T05:07:47.045Z,79.00
2018-07-03T05:10:16.077Z,78.60
2018-07-03T05:12:45.136Z,79.40
2018-07-03T05:15:14.128Z,79.30
2018-07-03T05:17:43.168Z,79.20
2018-07-03T05:20:12.461Z,79.30
2018-07-03T05:22:41.598Z,78.50
2018-07-03T05:25:10.586Z,77.70
2018-07-03T05:27:39.780Z,77.10
2018-07-03T05:30:08.916Z,76.50
2018-07-03T05:32:37.971Z,76.70
2018-07-03T05:35:07.275Z,75.00
2018-07-03T05:37:36.305Z,74.80
2018-07-03T05:40:05.632Z,73.20
2018-07-03T05:42:34.651Z,73.70
2018-07-03T05:45:03.667Z,72.40
2018-07-03T05:47:32.692Z,72.70
2018-07-03T05:50:01.722Z,71.50
2018-07-03T05:52:30.708Z,71.30
2018-07-03T05:54:59.732Z,68.70
2018-07-03T05:57:28.989Z,68.80
2018-07-03T05:59:57.976Z,68.30
2018-07-03T06:02:26.964Z,67.10
2018-07-03T06:04:55.982Z,66.10
2018-07-03T06:07:24.967Z,66.40
2018-07-03T06:09:53.993Z,66.50
2018-07-03T06:12:23.067Z,66.00
2018-07-03T06:14:52.100Z,66.60
2018-07-03T06:17:21.136Z,65.80
2018-07-03T06:19:50.223Z,65.60
2018-07-03T06:22:19.164Z,62.00
2018-07-03T06:24:48.153Z,64.10
2018-07-03T06:27:17.357Z,63.80
2018-07-03T06:29:46.350Z,60.10
2018-07-03T06:32:15.341Z,60.10
2018-07-03T06:34:44.723Z,60.30
2018-07-03T06:37:13.780Z,60.80
2018-07-03T06:39:42.746Z,58.70
2018-07-03T06:42:11.781Z,60.50
2018-07-03T06:44:40.863Z,57.50
2018-07-03T06:47:09.792Z,58.40
2018-07-03T06:49:38.813Z,57.30
2018-07-03T06:52:08.033Z,56.20
2018-07-03T06:54:37.012Z,56.70
2018-07-03T06:57:05.998Z,54.90
2018-07-03T06:59:35.028Z,55.60
2018-07-03T07:02:04.012Z,51.50
2018-07-03T07:04:33.014Z,51.00
2018-07-03T07:07:02.048Z,51.10
2018-07-03T07:09:31.157Z,51.30
2018-07-03T07:12:00.077Z,51.10
2018-07-03T07:14:29.060Z,50.10
2018-07-03T07:16:58.093Z,50.50
2018-07-03T07:19:27.128Z,48.80
2018-07-03T07:21:56.169Z,49.10
2018-07-03T07:24:25.189Z,49.80
2018-07-03T07:26:54.264Z,50.30
2018-07-03T07:29:23.259Z,49.90
2018-07-03T07:31:52.432Z,50.00
2018-07-03T07:34:21.461Z,51.60
2018-07-03T07:36:50.445Z,51.40
2018-07-03T07:39:19.475Z,50.90
2018-07-03T07:41:48.476Z,49.90
2018-07-03T07:44:17.488Z,50.50
2018-07-03T07:46:46.557Z,50.70
2018-07-03T07:49:15.542Z,50.90
2018-07-03T07:51:44.561Z,51.70
2018-07-03T07:54:13.593Z,51.20
2018-07-03T07:56:42.581Z,51.00
2018-07-03T07:59:11.601Z,50.00
2018-07-03T08:01:40.876Z,50.80
2018-07-03T08:04:09.908Z,50.50
2018-07-03T08:06:38.983Z,49.50
2018-07-03T08:09:09.577Z,49.50
2018-07-03T08:11:38.609Z,48.50
2018-07-03T08:14:07.819Z,47.50
2018-07-03T08:16:36.944Z,48.40
2018-07-03T08:19:05.956Z,49.30
2018-07-03T08:21:35.311Z,48.60
2018-07-03T08:24:04.364Z,48.40
2018-07-03T08:26:33.415Z,47.90
2018-07-03T08:29:02.393Z,48.50
2018-07-03T08:31:31.381Z,46.20
2018-07-03T08:34:00.422Z,46.70
2018-07-03T08:36:29.404Z,45.20
2018-07-03T08:38:58.588Z,45.00
2018-07-03T08:41:27.627Z,45.40
2018-07-03T08:43:56.645Z,46.10
2018-07-03T08:46:25.677Z,44.70
2018-07-03T08:48:54.696Z,44.50
2018-07-03T08:51:23.681Z,43.50
2018-07-03T08:53:52.706Z,42.60
2018-07-03T08:56:21.696Z,43.70
2018-07-03T08:58:51.113Z,43.10
2018-07-03T09:01:20.117Z,43.70
2018-07-03T09:03:49.148Z,45.70
2018-07-03T09:06:18.133Z,45.50
2018-07-03T09:08:47.148Z,44.50
2018-07-03T09:11:16.203Z,44.50
2018-07-03T09:13:45.228Z,42.90
2018-07-03T09:16:14.221Z,42.50
2018-07-03T09:18:43.474Z,42.60
2018-07-03T09:21:12.448Z,43.20
2018-07-03T09:23:41.442Z,42.90
2018-07-03T09:26:10.476Z,42.70
2018-07-03T09:28:39.452Z,42.30
2018-07-03T09:31:08.476Z,42.80
2018-07-03T09:33:37.553Z,39.20
2018-07-03T09:36:06.837Z,40.10
2018-07-03T09:38:35.822Z,39.40
2018-07-03T09:41:04.877Z,39.00
2018-07-03T09:43:33.905Z,39.10
2018-07-03T09:46:02.884Z,37.60
2018-07-03T09:48:31.919Z,38.40
2018-07-03T09:51:00.900Z,38.10
2018-07-03T09:53:29.921Z,37.20
2018-07-03T09:55:58.963Z,36.20
2018-07-03T09:58:28.022Z,36.80
2018-07-03T10:00:57.876Z,36.20
2018-07-03T10:03:28.268Z,36.90
2018-07-03T10:05:58.963Z,37.00
2018-07-03T10:08:28.953Z,37.20
2018-07-03T10:10:57.928Z,37.30
2018-07-03T10:13:26.957Z,37.80
2018-07-03T10:15:55.954Z,36.40
2018-07-03T10:18:25.144Z,36.30
2018-07-03T10:20:54.550Z,34.60
2018-07-03T10:23:23.534Z,35.30
2018-07-03T10:25:52.596Z,35.90
2018-07-03T10:28:21.616Z,36.40
2018-07-03T10:30:50.920Z,36.30
2018-07-03T10:33:19.896Z,36.40
2018-07-03T10:35:48.936Z,35.70
2018-07-03T10:38:18.000Z,35.50
2018-07-03T10:40:47.059Z,35.60
2018-07-03T10:43:16.042Z,35.00
2018-07-03T10:45:45.060Z,34.20
2018-07-03T10:48:14.058Z,35.60
2018-07-03T10:53:11.748Z,34.00
2018-07-03T10:55:40.800Z,33.50
2018-07-03T10:58:09.784Z,32.30
2018-07-03T11:00:38.836Z,33.20
2018-07-03T11:03:07.828Z,34.20
2018-07-03T11:05:36.989Z,33.30
2018-07-03T11:08:05.980Z,32.30
2018-07-03T11:10:35.005Z,33.10
2018-07-03T11:13:04.032Z,32.50
2018-07-03T11:15:33.068Z,33.70
2018-07-03T11:18:02.121Z,33.40
2018-07-03T11:20:31.112Z,31.60
2018-07-03T11:23:00.158Z,31.70
2018-07-03T11:25:29.185Z,32.00
2018-07-03T11:27:58.204Z,31.20
2018-07-03T11:30:27.209Z,31.90
2018-07-03T11:32:56.188Z,32.10
2018-07-03T11:35:25.553Z,31.90
2018-07-03T11:37:54.537Z,31.20
2018-07-03T11:40:23.525Z,33.10
2018-07-03T11:42:52.579Z,32.00
2018-07-03T11:45:21.671Z,32.00
2018-07-03T11:47:50.685Z,31.60
2018-07-03T11:50:19.664Z,31.10
2018-07-03T11:52:48.697Z,31.90
2018-07-03T11:55:17.735Z,31.10
2018-07-03T11:57:46.729Z,31.10
2018-07-03T12:00:16.155Z,33.30
2018-07-03T12:02:45.194Z,31.80
2018-07-03T12:05:14.181Z,31.20
2018-07-03T12:07:43.209Z,31.50
2018-07-03T12:10:12.752Z,32.00
2018-07-03T12:12:41.760Z,30.80
2018-07-03T12:15:10.753Z,31.30
2018-07-03T12:17:39.809Z,30.10
2018-07-03T12:20:08.785Z,30.40
2018-07-03T12:22:38.006Z,30.50
2018-07-03T12:25:07.025Z,31.40
2018-07-03T12:27:36.025Z,31.20
2018-07-03T12:30:07.816Z,32.30
2018-07-03T12:32:36.802Z,31.20
2018-07-03T12:35:06.304Z,30.70
2018-07-03T12:37:35.300Z,31.80
2018-07-03T12:40:04.616Z,30.90
2018-07-03T12:42:33.645Z,30.60
2018-07-03T12:45:02.721Z,31.90
2018-07-03T12:47:31.705Z,30.90
2018-07-03T12:50:00.738Z,29.80
2018-07-03T12:52:29.776Z,30.00
2018-07-03T12:54:58.813Z,29.40
2018-07-03T12:57:27.827Z,29.60
2018-07-03T12:59:56.801Z,28.70
2018-07-03T13:02:26.088Z,29.50
2018-07-03T13:04:55.097Z,29.30
2018-07-03T13:07:24.085Z,29.60
2018-07-03T13:09:53.196Z,30.70
2018-07-03T13:12:22.204Z,29.70
2018-07-03T13:14:51.232Z,29.30
2018-07-03T13:17:20.214Z,29.00
2018-07-03T13:19:49.209Z,29.00
2018-07-03T13:22:18.533Z,28.60
2018-07-03T13:24:47.591Z,29.70
2018-07-03T13:27:16.576Z,28.30
2018-07-03T13:29:45.683Z,28.10
2018-07-03T13:32:14.634Z,28.30
2018-07-03T13:34:43.623Z,28.10
2018-07-03T13:37:12.741Z,29.10
2018-07-03T13:39:41.732Z,28.30
2018-07-03T13:42:10.765Z,28.70
2018-07-03T13:44:39.741Z,28.70
2018-07-03T13:47:08.760Z,28.40
2018-07-03T13:49:37.863Z,27.80
2018-07-03T13:52:06.839Z,27.80
2018-07-03T13:54:35.869Z,27.30
2018-07-03T13:57:04.941Z,27.80
2018-07-03T13:59:33.976Z,28.60
2018-07-03T14:02:03.337Z,27.50
2018-07-03T14:04:32.565Z,26.20
2018-07-03T14:07:01.560Z,26.70
2018-07-03T14:09:30.532Z,27.60
2018-07-03T14:11:59.562Z,26.70
2018-07-03T14:14:28.591Z,26.80
2018-07-03T14:16:57.572Z,26.50
2018-07-03T14:19:26.600Z,26.70
2018-07-03T14:21:55.916Z,27.30
2018-07-03T14:24:24.921Z,27.00
2018-07-03T14:26:54.060Z,26.60
2018-07-03T14:29:23.092Z,26.80
2018-07-03T14:31:52.152Z,26.70
2018-07-03T14:34:21.173Z,25.80
2018-07-03T14:36:50.203Z,25.60
2018-07-03T14:39:19.329Z,25.90
2018-07-03T14:41:48.438Z,25.30
2018-07-03T14:44:17.411Z,25.40
2018-07-03T14:46:46.445Z,26.60
2018-07-03T14:49:15.429Z,25.20
2018-07-03T14:51:44.456Z,25.30
2018-07-03T14:54:13.537Z,26.20
2018-07-03T14:59:11.849Z,25.30
2018-07-03T15:01:40.859Z,25.90
2018-07-03T15:04:09.904Z,25.70
2018-07-03T15:06:38.932Z,25.70
2018-07-03T15:09:09.978Z,25.50
2018-07-03T15:11:39.183Z,24.60
2018-07-03T15:14:08.217Z,24.20
2018-07-03T15:16:37.252Z,23.90
2018-07-03T15:19:12.153Z,22.60
2018-07-03T15:21:41.408Z,21.80
2018-07-03T15:24:10.544Z,21.80
2018-07-03T15:26:40.988Z,20.80
2018-07-03T15:29:11.232Z,21.20
2018-07-03T15:31:40.276Z,20.50
2018-07-03T15:34:10.261Z,21.50
2018-07-03T15:36:39.243Z,21.50
2018-07-03T15:39:10.732Z,20.50
2018-07-03T15:41:40.308Z,20.30
2018-07-03T15:44:20.972Z,21.00
2018-07-03T15:46:50.602Z,20.40
2018-07-03T15:49:19.580Z,20.60
2018-07-03T15:51:48.600Z,20.90
2018-07-03T15:54:17.617Z,21.80
2018-07-03T15:59:15.377Z,22.10
2018-07-03T16:01:44.364Z,21.10
2018-07-03T16:05:28.392Z,20.80
2018-07-03T16:10:09.120Z,21.70
2018-07-03T16:12:38.377Z,22.00
2018-07-03T16:15:08.149Z,22.70
2018-07-03T16:17:37.171Z,21.40
2018-07-03T16:20:11.754Z,21.00
2018-07-03T16:22:40.782Z,19.20
2018-07-03T16:25:10.186Z,19.40
2018-07-03T16:27:39.182Z,19.80
2018-07-03T16:30:08.888Z,19.70
2018-07-03T16:32:38.105Z,19.60
2018-07-03T16:35:07.169Z,20.00
2018-07-03T16:37:36.201Z,20.00
2018-07-03T16:40:05.520Z,20.00
2018-07-03T16:42:34.535Z,19.90
2018-07-03T16:45:03.568Z,20.20
2018-07-03T16:47:32.609Z,20.30
2018-07-03T16:50:01.705Z,20.20
2018-07-03T16:52:30.727Z,19.30
2018-07-03T16:57:28.634Z,21.80
2018-07-03T16:59:57.633Z,23.20
2018-07-03T17:02:26.690Z,23.70
2018-07-03T17:04:55.680Z,24.20
2018-07-03T17:07:24.741Z,25.10
2018-07-03T17:09:53.772Z,25.60
2018-07-03T17:12:22.949Z,26.70
2018-07-03T17:14:51.968Z,26.00
2018-07-03T17:17:20.963Z,26.40
2018-07-03T17:19:50.042Z,27.30
2018-07-03T17:22:19.109Z,26.80
2018-07-03T17:24:48.242Z,26.60
2018-07-03T17:27:17.304Z,27.40
2018-07-03T17:29:46.309Z,26.50
2018-07-03T17:32:15.309Z,26.30
2018-07-03T17:34:44.355Z,27.10
2018-07-03T17:37:13.368Z,27.60
2018-07-03T17:39:54.136Z,27.90
2018-07-03T17:42:34.541Z,28.50
2018-07-03T17:45:43.760Z,28.90
2018-07-03T17:48:13.720Z,27.70
2018-07-03T17:50:43.027Z,26.80
2018-07-03T17:53:12.019Z,26.90
2018-07-03T17:55:41.013Z,27.10
2018-07-03T17:58:10.066Z,26.40
2018-07-03T18:00:39.340Z,25.80
2018-07-03T18:03:08.393Z,24.30
2018-07-03T18:05:37.804Z,23.60
2018-07-03T18:08:06.861Z,23.20
2018-07-03T18:10:35.885Z,24.00
2018-07-03T18:13:05.373Z,25.50
2018-07-03T18:15:34.395Z,25.00
2018-07-03T18:18:03.658Z,28.50
2018-07-03T18:20:32.709Z,30.60
2018-07-03T18:23:01.705Z,33.70
2018-07-03T18:25:30.976Z,33.90
2018-07-03T18:28:00.253Z,35.20
2018-07-03T18:30:29.556Z,35.10
2018-07-03T18:32:58.633Z,33.80
2018-07-03T18:35:29.164Z,33.00
2018-07-03T18:37:58.164Z,35.10
2018-07-03T18:40:27.229Z,35.60
2018-07-03T18:42:56.680Z,37.00
2018-07-03T18:45:25.743Z,39.50
2018-07-03T18:47:54.740Z,41.60
2018-07-03T18:50:23.724Z,42.30
2018-07-03T18:52:52.969Z,44.40
2018-07-03T18:55:22.248Z,45.00
2018-07-03T18:57:51.518Z,45.60
2018-07-03T19:00:20.618Z,45.40
2018-07-03T19:02:50.075Z,47.70
2018-07-03T19:05:20.035Z,48.30
2018-07-03T19:07:49.034Z,48.90
2018-07-03T19:10:18.053Z,49.50
2018-07-03T19:12:47.080Z,50.50
2018-07-03T19:15:16.099Z,51.50
2018-07-03T19:17:45.165Z,52.00
2018-07-03T19:20:15.080Z,52.10
2018-07-03T19:22:44.138Z,52.60
2018-07-03T19:25:13.192Z,53.10
2018-07-03T19:27:42.218Z,53.90
2018-07-03T19:30:11.262Z,55.50
2018-07-03T19:32:40.497Z,54.90
2018-07-03T19:35:10.324Z,56.20
2018-07-03T19:37:39.309Z,56.10
2018-07-03T19:40:08.946Z,57.00
2018-07-03T19:45:11.479Z,59.10
2018-07-03T19:47:40.493Z,58.80
2018-07-03T19:52:38.212Z,58.30
2018-07-03T19:55:07.211Z,59.90
2018-07-03T19:57:36.309Z,63.10
2018-07-03T20:00:06.006Z,62.60
2018-07-03T20:02:35.037Z,63.90
2018-07-03T20:05:04.099Z,64.50
2018-07-03T20:07:33.132Z,63.90
2018-07-03T20:10:02.344Z,63.70
2018-07-03T20:12:31.424Z,64.40
2018-07-03T20:15:00.413Z,65.10
2018-07-03T20:17:29.673Z,66.10
2018-07-03T20:19:58.652Z,67.90
2018-07-03T20:22:27.628Z,69.50
2018-07-03T20:24:56.687Z,69.70
2018-07-03T20:27:25.675Z,71.10
2018-07-03T20:29:54.692Z,73.00
2018-07-03T20:32:23.717Z,73.30
2018-07-03T20:34:52.749Z,72.10
2018-07-03T20:37:21.750Z,73.10
2018-07-03T20:39:50.773Z,71.20
2018-07-03T20:42:19.824Z,71.40
2018-07-03T20:44:48.816Z,71.00
2018-07-03T20:47:17.804Z,71.10
2018-07-03T20:49:46.962Z,74.10
2018-07-03T20:52:16.194Z,74.80
2018-07-03T20:54:45.176Z,76.50
2018-07-03T20:57:14.212Z,77.80
2018-07-03T20:59:43.206Z,78.70
2018-07-03T21:02:12.197Z,78.40
2018-07-03T21:04:41.244Z,78.50
2018-07-03T21:07:10.233Z,77.00
2018-07-03T21:09:39.217Z,78.90
2018-07-03T21:12:08.228Z,80.20
2018-07-03T21:14:38.838Z,80.10
2018-07-03T21:17:07.827Z,79.50
2018-07-03T21:19:36.852Z,77.40
2018-07-03T21:22:05.868Z,78.10
2018-07-03T21:24:34.933Z,78.70
2018-07-03T21:27:03.919Z,77.20
2018-07-03T21:29:32.923Z,78.50
2018-07-03T21:32:02.205Z,78.90
2018-07-03T21:34:31.679Z,79.20
2018-07-03T21:37:00.667Z,80.30
2018-07-03T21:39:29.857Z,80.90
2018-07-03T21:41:58.901Z,78.60
2018-07-03T21:44:27.982Z,78.60
2018-07-03T21:49:25.620Z,76.40
2018-07-03T21:51:54.632Z,77.10
2018-07-03T21:54:23.963Z,77.30
2018-07-03T21:56:52.957Z,76.70
2018-07-03T21:59:21.941Z,77.20
2018-07-03T22:01:51.087Z,77.80
2018-07-03T22:04:20.158Z,77.20
2018-07-03T22:06:49.149Z,77.40
2018-07-03T22:09:18.167Z,77.60
2018-07-03T22:11:47.190Z,78.80
2018-07-03T22:14:16.180Z,79.60
2018-07-03T22:16:45.201Z,79.30
2018-07-03T22:19:14.221Z,78.70
2018-07-03T22:21:43.246Z,79.30
2018-07-03T22:24:12.333Z,79.20
2018-07-03T22:26:41.376Z,80.00
2018-07-03T22:29:10.372Z,80.70
2018-07-03T22:31:39.386Z,81.40
2018-07-03T22:34:08.365Z,81.10
2018-07-03T22:36:37.464Z,81.70
2018-07-03T22:39:07.601Z,81.10
2018-07-03T22:41:36.886Z,81.50
2018-07-03T22:44:05.927Z,82.10
2018-07-03T22:46:34.914Z,83.50
2018-07-03T22:49:03.932Z,83.90
2018-07-03T22:51:32.914Z,84.40
2018-07-03T22:54:01.968Z,83.80
2018-07-03T22:56:30.992Z,82.90
2018-07-03T23:01:29.008Z,82.00
2018-07-03T23:03:58.032Z,82.40
2018-07-03T23:06:27.052Z,81.80
2018-07-03T23:08:56.225Z,82.10
2018-07-03T23:11:25.204Z,82.50
2018-07-03T23:13:54.326Z,84.00
2018-07-03T23:16:23.348Z,84.70
2018-07-03T23:18:52.329Z,82.50
2018-07-03T23:21:21.312Z,82.30
2018-07-03T23:23:50.341Z,82.10
2018-07-03T23:26:19.324Z,81.60
2018-07-03T23:28:48.308Z,82.30
2018-07-03T23:31:17.357Z,83.50
2018-07-03T23:33:46.336Z,84.50
2018-07-03T23:36:15.556Z,84.20
2018-07-03T23:38:44.589Z,84.40
2018-07-03T23:41:13.568Z,83.80
2018-07-03T23:43:42.596Z,84.00
2018-07-03T23:46:10.653Z,83.60
2018-07-03T23:48:57.148Z,83.50
2018-07-03T23:51:43.825Z,83.70
2018-07-03T23:54:30.189Z,84.00
2018-07-03T23:57:16.733Z,84.50
